Tiempo atmosférico en la estación meteorológica de La Pobla de Massaluca, Tarragona (365 m.)



Fecha
DESCASC
Temp. máxima en grados centígrados (hora)
DESCASC
Temp. mínima en grados centígrados (hora)
DESCASC
Temp. media en grados centígrados
DESCASC
Racha de viento máxima en m/sg (hora)
DESCASC
Velocidad máxima media en intervalos de 10 minutos(hora)
DESCASC
Precipitaciones diarias en mm
DESCASC
Precipitaciones de 00:00 a 06:00 en mm
DESCASC
Precipitaciones de 06:00 a 12:00 en mm
DESCASC
Precipitaciones de 12:00 a 18:00 en mm
DESCASC
Precipitaciones de 18:00 a 24:00 en mm
DESCASC
11-12-2019 10.9 (12:30) 5.7 (08:50) 8.3 18.61 (16:40) 11.67 (16:10) 0 0 0 0 0
08-12-2019 11.3 (16:10) 2.8 (00:00) 7.1 10.83 (23:00) 7.22 (23:00) 0.4 0.2 0 0 0.2
07-12-2019 10.5 (16:10) 3.6 (00:00) 7 3.89 (05:10) 2.5 (04:20) 0.2 0.2 0 0 0
06-12-2019 13.3 (15:40) 8.1 (00:00) 10.7 3.33 (10:10) 3.06 (21:00) 0.6 0 0.6 0 0
05-12-2019 9.4 (13:10) 7.4 (00:00) 8.4 5.28 (15:00) 3.89 (14:20) 6.2 1 1.2 3.8 0.2
04-12-2019 9 (21:10) 4.1 (08:40) 6.5 6.94 (18:40) 3.61 (05:10) 16.8 0 5.4 10 1.4
03-12-2019 7.1 (12:20) 3.5 (00:00) 5.3 8.89 (01:10) 5.83 (01:10) 0 0 0 0 0
02-12-2019 11.5 (15:30) 5.1 (00:00) 8.3 8.61 (23:20) 6.11 (22:40) 0 0 0 0 0
01-12-2019 13.4 (15:40) 7.1 (00:00) 10.2 9.44 (00:10) 5.83 (00:20) 0 0 0 0 0
30-11-2019 18.1 (15:40) 7.5 (00:00) 12.8 7.22 (18:20) 4.44 (23:59) 0 0 0 0 0
29-11-2019 17.2 (13:40) 11.7 (00:00) 14.5 11.67 (12:50) 7.78 (13:00) 0 0 0 0 0
28-11-2019 18.3 (14:40) 10.6 (07:00) 14.4 11.94 (13:30) 7.78 (13:30) 0 0 0 0 0
27-11-2019 17 (15:40) 11.5 (00:00) 14.3 13.33 (07:10) 9.72 (07:10) 0 0 0 0 0
26-11-2019 18.3 (16:00) 10.3 (00:00) 14.3 6.94 (01:30) 4.17 (02:00) 0 0 0 0 0
25-11-2019 16.7 (16:10) 6.9 (02:00) 11.8 11.11 (14:40) 7.78 (14:40) 0.2 0.2 0 0 0
24-11-2019 13 (15:00) 7.3 (00:00) 10.2 18.61 (12:20) 12.5 (14:00) 0 0 0 0 0
23-11-2019 10.9 (00:00) 7.2 (00:00) 9 21.67 (17:00) 15 (17:00) 1.8 0.4 1.2 0.2 0
22-11-2019 12.5 (12:50) 5.2 (00:00) 8.8 12.78 (20:00) 6.39 (21:30) 3.6 0 0 1.8 1.8
21-11-2019 13.8 (14:20) 4.8 (00:00) 9.3 4.44 (12:10) 2.78 (12:30) 0 0 0 0 0
20-11-2019 12.8 (14:40) 1.9 (09:00) 7.4 6.11 (16:00) 3.33 (16:30) 0 0 0 0 0
19-11-2019 11.1 (15:20) 3.5 (00:00) 7.3 10.56 (10:40) 6.39 (12:20) 0 0 0 0 0
18-11-2019 10.9 (16:10) 4.5 (00:00) 7.7 11.39 (11:10) 7.22 (11:10) 0 0 0 0 0
17-11-2019 12.2 (14:00) 3.7 (00:00) 7.9 10.83 (11:50) 7.5 (12:10) 1 0 0 0.4 0.6
16-11-2019 9.7 (15:20) 2 (00:00) 5.8 11.11 (15:40) 7.5 (15:30) 0 0 0 0 0
15-11-2019 10 (13:40) 3.5 (00:00) 6.8 14.17 (16:20) 8.61 (16:20) 0 0 0 0 0

Gráficas

Temp. máximas Temp. mínimas Temp. medias Precipitaciones Rachas de viento máximas Velocidades máximas media en intervalos de 10 minutos

Datos horarios

Fecha y hora oficial Temperatura (ºC) Velocidad del viento (km/h) Dirección del viento Racha (km/h) Dirección de racha Precipitación (mm) Presión (hPa) Tendencia (hPa) Humedad (%)
2019-12-14 23:00:00 10.4 17 Sudoeste 26 Sudoeste 0 -- -- 66
2019-12-14 22:00:00 11.3 14 Sudoeste 25 Oeste 0 -- -- 62
2019-12-14 21:00:00 10.7 11 Oeste 21 Oeste 0 -- -- 65
2019-12-14 20:00:00 10.8 13 Oeste 26 Oeste 0 -- -- 65
2019-12-14 19:00:00 11.7 15 Oeste 25 Oeste 0 -- -- 62
2019-12-14 18:00:00 12 11 Oeste 21 Sudoeste 0 -- -- 62
2019-12-14 17:00:00 13.8 12 Oeste 32 Oeste 0 -- -- 57
2019-12-14 16:00:00 14.3 22 Oeste 35 Oeste 0 -- -- 55
2019-12-14 15:00:00 14.3 23 Oeste 40 Oeste 0 -- -- 56
2019-12-14 14:00:00 13.9 23 Oeste 41 Oeste 0 -- -- 58
2019-12-14 13:00:00 13.5 24 Oeste 51 Oeste 0 -- -- 60
2019-12-14 12:00:00 13.1 32 Oeste 53 Oeste 0 -- -- 61
2019-12-14 11:00:00 12.6 26 Oeste 39 Oeste 0 -- -- 64
2019-12-14 10:00:00 11.4 21 Oeste 34 Oeste 0 -- -- 67
2019-12-14 09:00:00 10.8 22 Sudoeste 33 Oeste 0 -- -- 69
2019-12-14 08:00:00 9.8 17 Oeste 33 Oeste 0 -- -- 76
2019-12-14 07:00:00 10.1 18 Oeste 35 Oeste 0 -- -- 76
2019-12-14 06:00:00 11 23 Oeste 39 Oeste 0 -- -- 72
2019-12-14 05:00:00 11.4 26 Oeste 38 Oeste 0 -- -- 70
2019-12-14 04:00:00 12.2 28 Oeste 47 Oeste 0 -- -- 69
2019-12-14 03:00:00 12.1 29 Oeste 54 Oeste 0 -- -- 70
2019-12-14 02:00:00 12.4 29 Oeste 44 Oeste 0 -- -- 71
2019-12-14 01:00:00 13 34 Oeste 44 Oeste 0 -- -- 71
2019-12-14 00:00:00 13.3 22 Oeste 42 Oeste 0 -- -- 77
2019-12-13 23:00:00 14 28 Oeste 51 Oeste 0 -- -- 79
2019-12-13 22:00:00 13.7 32 Oeste 49 Oeste 0 -- -- 81
2019-12-13 21:00:00 13.6 28 Oeste 41 Oeste 0 -- -- 79
2019-12-13 20:00:00 14.6 30 Oeste 40 Oeste 0 -- -- 74
2019-12-13 19:00:00 14.7 23 Oeste 37 Sudoeste 0 -- -- 72
2019-12-13 18:00:00 15.1 26 Oeste 51 Oeste 0 -- -- 69
2019-12-13 17:00:00 15.7 33 Oeste 73 Oeste 0 -- -- 66
2019-12-13 16:00:00 16.7 48 Oeste 77 Oeste 0 -- -- 62
2019-12-13 15:00:00 16.7 49 Oeste 72 Oeste 0 -- -- 62
2019-12-13 14:00:00 16.5 41 Oeste 62 Oeste 0 -- -- 64
2019-12-13 13:00:00 15.3 35 Oeste 60 Oeste 0 -- -- 70
2019-12-13 12:00:00 15.4 39 Oeste 66 Oeste 0 -- -- 68
2019-12-13 11:00:00 14.3 35 Oeste 53 Oeste 0 -- -- 73
2019-12-13 10:00:00 14.7 41 Oeste 64 Oeste 0 -- -- 69
2019-12-13 09:00:00 15 35 Oeste 50 Oeste 0.2 -- -- 68
2019-12-13 08:00:00 14.8 33 Oeste 54 Oeste 0 -- -- 69
2019-12-13 07:00:00 14.3 33 Oeste 50 Oeste 0 -- -- 71
2019-12-13 06:00:00 13 22 Oeste 36 Oeste 0 -- -- 77
2019-12-13 05:00:00 12.6 19 Oeste 30 Oeste 0 -- -- 78
2019-12-13 04:00:00 12.5 22 Oeste 34 Oeste 0 -- -- 78
2019-12-13 03:00:00 11.5 19 Oeste 27 Oeste 0 -- -- 82
2019-12-13 02:00:00 10.9 14 Oeste 32 Oeste 0 -- -- 85
2019-12-13 01:00:00 10.6 21 Oeste 32 Oeste 0 -- -- 83
2019-12-13 00:00:00 9.7 21 Oeste 28 Oeste 0 -- -- 83
2019-12-12 23:00:00 8.8 11 Oeste 21 Oeste 0 -- -- 83
2019-12-12 22:00:00 8.3 11 Oeste 22 Oeste 0 -- -- 84
2019-12-12 21:00:00 7.7 11 Oeste 18 Sudoeste 0 -- -- 88
2019-12-12 20:00:00 7.4 6 Oeste 15 Sudoeste 0.4 -- -- 91
2019-12-12 19:00:00 7.7 9 Oeste 24 Sudoeste 0.4 -- -- 89
2019-12-12 18:00:00 8.4 15 Sudoeste 37 Oeste 0.2 -- -- 83
2019-12-12 17:00:00 10.4 27 Oeste 47 Oeste 0 -- -- 66
2019-12-12 16:00:00 11.1 29 Oeste 47 Oeste 0 -- -- 60
2019-12-12 15:00:00 11.2 20 Oeste 36 Oeste 0 -- -- 61
2019-12-12 14:00:00 11.2 19 Oeste 42 Oeste 0 -- -- 61
2019-12-12 13:00:00 10.7 28 Oeste 41 Oeste 0 -- -- 62
2019-12-12 12:00:00 10.5 22 Oeste 39 Oeste 0 -- -- 63
2019-12-12 11:00:00 9 24 Oeste 37 Oeste 0 -- -- 67
2019-12-12 10:00:00 7.2 19 Oeste 26 Oeste 0 -- -- 73
2019-12-12 09:00:00 5.3 14 Oeste 26 Oeste 0 -- -- 80
2019-12-12 08:00:00 5.7 20 Oeste 35 Oeste 0 -- -- 77
2019-12-12 07:00:00 5.9 25 Oeste 37 Oeste 0 -- -- 77
2019-12-12 06:00:00 5.2 21 Oeste 40 Oeste 0 -- -- 78
2019-12-12 05:00:00 5.3 22 Oeste 40 Oeste 0 -- -- 77
2019-12-12 04:00:00 5.7 30 Oeste 43 Oeste 0 -- -- 74
2019-12-12 03:00:00 6.1 31 Oeste 44 Oeste 0 -- -- 72
2019-12-12 02:00:00 5.9 28 Oeste 42 Oeste 0 -- -- 73
2019-12-12 01:00:00 5.9 30 Oeste 41 Oeste 0 -- -- 74
2019-12-12 00:00:00 6.7 27 Oeste 41 Oeste 0 -- -- 71
2019-12-11 23:00:00 6.5 25 Oeste 39 Oeste 0 -- -- 74
2019-12-11 22:00:00 6.6 25 Oeste 38 Oeste 0 -- -- 76
2019-12-11 21:00:00 6.7 25 Oeste 35 Oeste 0 -- -- 76
2019-12-11 20:00:00 7.5 24 Oeste 49 Oeste 0 -- -- 70
2019-12-11 19:00:00 8.1 28 Oeste 64 Oeste 0 -- -- 68
2019-12-11 18:00:00 8.5 30 Oeste 66 Oeste 0 -- -- 71
2019-12-11 17:00:00 9.6 36 Oeste 67 Oeste 0 -- -- 72
2019-12-11 16:00:00 9.3 39 Oeste 62 Oeste 0 -- -- 77
2019-12-11 15:00:00 9.8 32 Oeste 60 Oeste 0 -- -- 77
2019-12-11 14:00:00 8.4 29 Oeste 48 Oeste 0 -- -- 81
2019-12-11 13:00:00 10.6 27 Oeste 41 Oeste 0 -- -- 58
2019-12-11 12:00:00 10 15 Oeste 25 Oeste 0 -- -- 60
2019-12-11 11:00:00 8.6 8 Oeste 12 Oeste 0 -- -- 63
2019-12-11 10:00:00 7.7 4 Oeste 6 Sudoeste 0 -- -- 60
2019-12-11 09:00:00 5.8 0 Calma 12 Sudoeste 0 -- -- 65
2019-12-11 08:00:00 8.5 5 Sudoeste 13 Sudoeste 0 -- -- 52
2019-12-11 07:00:00 8.6 7 Sudoeste 12 Sudoeste 0 -- -- 51
2019-12-11 06:00:00 8.5 4 Sudoeste 9 Sudoeste 0 -- -- 50
2019-12-11 05:00:00 9.1 6 Sudoeste 11 Sudoeste 0 -- -- 49
2019-12-11 04:00:00 9.2 6 Sudoeste 13 Sudoeste 0 -- -- 51
2019-12-11 03:00:00 9.2 6 Sudoeste 10 Sudoeste 0 -- -- 50
2019-12-11 02:00:00 9.5 6 Oeste 16 Sudoeste 0 -- -- 49
2019-12-11 01:00:00 10 12 Sudoeste 19 Sudoeste 0 -- -- 49
2019-12-11 00:00:00 9.3 11 Oeste 16 Oeste 0 -- -- 53
2019-12-10 23:00:00 9.2 10 Sudoeste 16 Sudoeste 0 -- -- 56
2019-12-10 22:00:00 9.7 10 Sudoeste 17 Sudoeste 0 -- -- 55
2019-12-10 21:00:00 10.6 6 Sudoeste 13 Sudoeste 0 -- -- 51
2019-12-10 20:00:00 10.8 4 Sudoeste 10 Sudoeste 0 -- -- 50
2019-12-10 19:00:00 11.1 6 Sudoeste 12 Sudoeste 0 -- -- 51
2019-12-10 18:00:00 11 7 Sudoeste 14 Sudoeste 0 -- -- 53
2019-12-10 17:00:00 12.2 7 Oeste 20 Oeste 0 -- -- 53
2019-12-10 16:00:00 12.9 13 Oeste 23 Oeste 0 -- -- 51
2019-12-10 15:00:00 12.4 14 Oeste 32 Oeste 0 -- -- 57
2019-12-10 14:00:00 11.3 23 Oeste 36 Oeste 0 -- -- 62
2019-12-10 13:00:00 10.2 20 Oeste 34 Oeste 0 -- -- 66
2019-12-10 12:00:00 9.7 21 Oeste 32 Oeste 0 -- -- 67
2019-12-10 11:00:00 8.8 19 Oeste 36 Oeste 0 -- -- 69
2019-12-10 10:00:00 8.2 17 Sudoeste 40 Oeste 0 -- -- 72
2019-12-10 09:00:00 7.1 23 Oeste 48 Oeste 0 -- -- 75
2019-12-10 08:00:00 6.9 26 Oeste 36 Sudoeste 0 -- -- 76
2019-12-10 07:00:00 7.4 23 Oeste 46 Oeste 0 -- -- 75
2019-12-10 06:00:00 7.6 29 Oeste 52 Oeste 0 -- -- 75
2019-12-10 05:00:00 7.6 28 Oeste 47 Oeste 0 -- -- 75
2019-12-10 04:00:00 7.9 24 Oeste 60 Sudoeste 0 -- -- 73
2019-12-10 03:00:00 8.1 34 Oeste 54 Oeste 0 -- -- 75
2019-12-10 02:00:00 8.2 37 Oeste 64 Oeste 0 -- -- 74
2019-12-10 01:00:00 8.4 41 Oeste 60 Oeste 0 -- -- 71
2019-12-10 00:00:00 8.5 34 Oeste 57 Oeste 0 -- -- 73
2019-12-09 23:00:00 8.7 35 Oeste 59 Oeste 0 -- -- 73
2019-12-09 22:00:00 9 37 Oeste 68 Oeste 0 -- -- 72
2019-12-09 21:00:00 9.2 41 Oeste 73 Oeste 0 -- -- 71
2019-12-09 20:00:00 9.7 48 Oeste 73 Oeste 0 -- -- 69
2019-12-09 19:00:00 10 47 Oeste 75 Oeste 0 -- -- 69
2019-12-09 18:00:00 10.5 44 Oeste 68 Oeste 0 -- -- 66
2019-12-09 17:00:00 11.3 43 Oeste 68 Oeste 0 -- -- 60
2019-12-09 16:00:00 12 48 Oeste 75 Oeste 0 -- -- 64
2019-12-09 15:00:00 12.1 42 Oeste 84 Oeste 0 -- -- 64
2019-12-09 14:00:00 12.4 55 Oeste 78 Oeste 0 -- -- 60
2019-12-09 13:00:00 12 50 Oeste 74 Oeste 0.2 -- -- 61
2019-12-09 12:00:00 11.1 34 Oeste 53 Oeste 0 -- -- 63
2019-12-09 11:00:00 10 33 Oeste 59 Oeste 0 -- -- 69
2019-12-09 10:00:00 8.5 30 Oeste 46 Oeste 0 -- -- 78
2019-12-09 09:00:00 7.5 17 Sudoeste 34 Oeste 0 -- -- 85
2019-12-09 08:00:00 7.3 14 Oeste 27 Oeste 0 -- -- 86
2019-12-09 07:00:00 8 21 Oeste 36 Oeste 0 -- -- 85
2019-12-09 06:00:00 8 20 Oeste 39 Sudoeste 0 -- -- 87
2019-12-09 05:00:00 7.9 24 Oeste 37 Oeste 0 -- -- 90
2019-12-09 04:00:00 8.2 22 Oeste 33 Oeste 0 -- -- 91
2019-12-09 03:00:00 8 13 Oeste 24 Sudoeste 0 -- -- 92
2019-12-09 02:00:00 8.8 20 Oeste 30 Oeste 0 -- -- 90
2019-12-09 01:00:00 9 14 Oeste 32 Oeste 0 -- -- 92
2019-12-09 00:00:00 9.2 20 Oeste 34 Oeste 0 -- -- 94
2019-12-08 23:00:00 9.1 26 Oeste 39 Oeste 0 -- -- 98
2019-12-08 22:00:00 8.9 17 Oeste 29 Oeste 0 -- -- 98
2019-12-08 21:00:00 8.5 17 Oeste 27 Sudoeste 0 -- -- 98
2019-12-08 20:00:00 8.1 17 Sudoeste 27 Sudoeste 0.2 -- -- 95
2019-12-08 19:00:00 8.7 13 Oeste 22 Oeste 0 -- -- 87
2019-12-08 18:00:00 9.1 9 Oeste 15 Sudoeste 0 -- -- 85
2019-12-08 17:00:00 10.3 8 Oeste 17 Oeste 0 -- -- 83
2019-12-08 16:00:00 11.2 10 Oeste 17 Sudoeste 0 -- -- 77
2019-12-08 15:00:00 9.5 8 Noroeste 17 Oeste 0 -- -- 95
2019-12-08 14:00:00 8.3 5 Oeste 9 Oeste 0 -- -- 100
2019-12-08 13:00:00 6.1 6 Oeste 12 Noroeste 0 -- -- 100
2019-12-08 12:00:00 5.6 3 Sudoeste 7 Sudoeste 0 -- -- 100
2019-12-08 11:00:00 3.8 2 Oeste 7 Oeste 0 -- -- 100
2019-12-08 10:00:00 3.2 3 Oeste 7 Sudeste 0 -- -- 100
2019-12-08 09:00:00 2.9 5 Sudeste 7 Sudeste 0 -- -- 100
2019-12-08 08:00:00 3.6 3 Oeste 5 Oeste 0 -- -- 100
2019-12-08 07:00:00 3.8 3 Oeste 7 Noroeste 0 -- -- 100
2019-12-08 06:00:00 3.9 2 Oeste 8 Noroeste 0 -- -- 100
2019-12-08 05:00:00 3.9 3 Oeste 6 Oeste 0 -- -- 100
2019-12-08 04:00:00 4.3 2 Sudoeste 7 Oeste 0 -- -- 100
2019-12-08 03:00:00 4.5 2 Oeste 6 Oeste 0 -- -- 100
2019-12-08 02:00:00 4.9 4 Oeste 6 Oeste 0.2 -- -- 100
2019-12-08 01:00:00 5.4 4 Noroeste 8 Oeste 0 -- -- 100
2019-12-08 00:00:00 5.7 4 Noroeste 6 Noroeste 0 -- -- 100
2019-12-07 23:00:00 5.8 0 Calma 6 Noroeste 0 -- -- 100
2019-12-07 22:00:00 5.8 4 Noroeste 6 Norte 0 -- -- 99
2019-12-07 21:00:00 5.5 3 Norte 5 Nordeste 0 -- -- 99
2019-12-07 20:00:00 6.6 2 Este 4 Este 0 -- -- 98
2019-12-07 19:00:00 7.4 4 Nordeste 4 Nordeste 0 -- -- 95
2019-12-07 18:00:00 8.6 2 Este 4 Nordeste 0 -- -- 89
2019-12-07 17:00:00 10.1 0 Calma 7 Oeste 0 -- -- 84
2019-12-07 16:00:00 10.3 5 Oeste 10 Oeste 0 -- -- 84
2019-12-07 15:00:00 9.7 5 Noroeste 10 Oeste 0 -- -- 86
2019-12-07 14:00:00 8.4 2 Norte 7 Noroeste 0 -- -- 100
2019-12-07 13:00:00 6.8 3 Noroeste 8 Noroeste 0 -- -- 100
2019-12-07 12:00:00 6.1 4 Oeste 10 Oeste 0 -- -- 100
2019-12-07 11:00:00 5.9 3 Sudoeste 7 Oeste 0 -- -- 100
2019-12-07 10:00:00 5.4 4 Oeste 8 Sur 0 -- -- 100
2019-12-07 09:00:00 4 4 Oeste 8 Oeste 0 -- -- 100
2019-12-07 08:00:00 3.7 0 Calma 5 Este 0 -- -- 99
2019-12-07 07:00:00 4.5 0 Calma 6 Oeste 0 -- -- 99
2019-12-07 06:00:00 5 5 Oeste 14 Sudoeste 0.2 -- -- 98
2019-12-07 05:00:00 6.2 7 Sudoeste 12 Sur 0 -- -- 99
2019-12-07 04:00:00 6.3 8 Sudoeste 12 Sudoeste 0 -- -- 98
2019-12-07 03:00:00 7.1 5 Oeste 6 Oeste 0 -- -- 98
2019-12-07 02:00:00 7.6 0 Calma 4 Este 0 -- -- 97
2019-12-07 01:00:00 7.6 0 Calma 4 Este 0 -- -- 96
2019-12-07 00:00:00 8.4 0 Calma 4 Noroeste 0 -- -- 95
2019-12-06 23:00:00 8.5 4 Sur 8 Sudeste 0 -- -- 95
2019-12-06 22:00:00 8.8 5 Oeste 12 Sudeste 0 -- -- 90
2019-12-06 21:00:00 9.5 11 Sur 12 Sudeste 0 -- -- 89
2019-12-06 20:00:00 9.7 9 Sudeste 11 Sur 0 -- -- 90
2019-12-06 19:00:00 10.2 3 Este 4 Este 0 -- -- 87
2019-12-06 18:00:00 11.3 0 Calma 3 Sur 0 -- -- 82
2019-12-06 17:00:00 13.1 3 Sudoeste 8 Sudoeste 0 -- -- 77
2019-12-06 16:00:00 13.3 4 Oeste 8 Oeste 0 -- -- 77
2019-12-06 15:00:00 12.7 4 Oeste 10 Noroeste 0 -- -- 78
2019-12-06 14:00:00 12.1 3 Noroeste 9 Oeste 0 -- -- 79
2019-12-06 13:00:00 11.2 5 Noroeste 10 Noroeste 0 -- -- 85
2019-12-06 12:00:00 10.4 4 Oeste 9 Oeste 0 -- -- 91
2019-12-06 11:00:00 8.7 5 Oeste 12 Oeste 0 -- -- 96
2019-12-06 10:00:00 8.5 6 Oeste 10 Oeste 0 -- -- 98
2019-12-06 09:00:00 8.2 4 Oeste 10 Sudoeste 0 -- -- 99
2019-12-06 08:00:00 8.1 6 Sudoeste 9 Sudoeste 0 -- -- 99
2019-12-06 07:00:00 8.2 6 Sur 9 Sudoeste 0.6 -- -- 99
2019-12-06 06:00:00 8.2 6 Sudoeste 9 Sudoeste 0 -- -- 99
2019-12-06 05:00:00 8.3 6 Oeste 8 Sudoeste 0 -- -- 99
2019-12-06 04:00:00 8.3 4 Sudoeste 8 Sudoeste 0 -- -- 99
2019-12-06 03:00:00 8.2 5 Sudoeste 8 Sudoeste 0 -- -- 99
2019-12-06 02:00:00 8.1 6 Sudoeste 8 Sudoeste 0 -- -- 100
2019-12-06 01:00:00 8.2 3 Sudoeste 6 Sudoeste 0 -- -- 100
2019-12-06 00:00:00 8.1 3 Sudoeste 9 Sudoeste 0 -- -- 100
2019-12-05 23:00:00 8 3 Sudoeste 8 Sudoeste 0 -- -- 100
2019-12-05 22:00:00 8 5 Sur 9 Sudoeste 0 -- -- 100
2019-12-05 21:00:00 7.8 6 Sudoeste 9 Sudoeste 0 -- -- 100
2019-12-05 20:00:00 7.7 5 Sudoeste 9 Sudoeste 0.2 -- -- 100
2019-12-05 19:00:00 7.6 6 Sudoeste 13 Sudoeste 0 -- -- 100
2019-12-05 18:00:00 7.6 10 Sudoeste 15 Oeste 0.2 -- -- 100
2019-12-05 17:00:00 8 8 Oeste 15 Oeste 0.4 -- -- 100
2019-12-05 16:00:00 8.4 12 Oeste 18 Oeste 1.6 -- -- 100
2019-12-05 15:00:00 8.8 13 Oeste 19 Oeste 0.4 -- -- 100
2019-12-05 14:00:00 9 14 Oeste 17 Oeste 0.8 -- -- 100
2019-12-05 13:00:00 9.3 9 Noroeste 14 Noroeste 0.4 -- -- 100
2019-12-05 12:00:00 9 8 Noroeste 15 Noroeste 0.6 -- -- 100
2019-12-05 11:00:00 8.7 8 Oeste 12 Oeste 0.2 -- -- 100
2019-12-05 10:00:00 8.2 5 Oeste 8 Oeste 0 -- -- 100
2019-12-05 09:00:00 7.8 5 Oeste 7 Oeste 0.4 -- -- 100
2019-12-05 08:00:00 7.5 6 Oeste 10 Oeste 0 -- -- 100
2019-12-05 07:00:00 7.4 7 Sudoeste 10 Sudoeste 0 -- -- 100
2019-12-05 06:00:00 7.4 6 Sudoeste 9 Oeste 0 -- -- 100
2019-12-05 05:00:00 7.5 8 Sudoeste 11 Sudoeste 0 -- -- 100
2019-12-05 04:00:00 7.4 8 Sudoeste 13 Sudoeste 0 -- -- 99
2019-12-05 03:00:00 7.4 7 Sudoeste 15 Sudoeste 0.4 -- -- 99
2019-12-05 02:00:00 7.5 12 Sudoeste 16 Sudoeste 0.6 -- -- 98
2019-12-05 01:00:00 7.7 9 Sudoeste 12 Sudoeste 0 -- -- 97
2019-12-05 00:00:00 8.1 5 Sudoeste 10 Sur 0 -- -- 96
2019-12-04 23:00:00 8.3 4 Noroeste 7 Oeste 0 -- -- 96
2019-12-04 22:00:00 8.7 5 Noroeste 20 Nordeste 0 -- -- 93
2019-12-04 21:00:00 8.9 11 Norte 25 Nordeste 0 -- -- 93
2019-12-04 20:00:00 8.6 11 Norte 20 Nordeste 0.4 -- -- 97
2019-12-04 19:00:00 8.3 13 Norte 25 Norte 1 -- -- 100
2019-12-04 18:00:00 6.5 7 Noroeste 12 Oeste 1.2 -- -- 100
2019-12-04 17:00:00 6.2 9 Oeste 15 Oeste 1.6 -- -- 100
2019-12-04 16:00:00 6 9 Oeste 16 Oeste 1 -- -- 99
2019-12-04 15:00:00 5.7 7 Oeste 12 Oeste 0.6 -- -- 99
2019-12-04 14:00:00 5.1 8 Oeste 16 Sudoeste 1.4 -- -- 99
2019-12-04 13:00:00 4.8 11 Sudoeste 17 Sur 4.2 -- -- 98
2019-12-04 12:00:00 4.6 7 Sudoeste 13 Oeste 3.4 -- -- 97
2019-12-04 11:00:00 4.7 9 Oeste 13 Oeste 1 -- -- 97
2019-12-04 10:00:00 4.6 7 Oeste 15 Sudoeste 1 -- -- 95
2019-12-04 09:00:00 4.2 11 Sudoeste 17 Sudoeste 0 -- -- 93
2019-12-04 08:00:00 4.3 9 Oeste 17 Oeste 0 -- -- 94
2019-12-04 07:00:00 4.4 6 Oeste 15 Oeste 0 -- -- 93
2019-12-04 06:00:00 4.5 8 Oeste 17 Oeste 0 -- -- 93
2019-12-04 05:00:00 4.4 12 Oeste 17 Oeste 0 -- -- 93
2019-12-04 04:00:00 4.4 8 Oeste 17 Sudoeste 0 -- -- 94
2019-12-04 03:00:00 4.4 10 Oeste 14 Oeste 0 -- -- 95
2019-12-04 02:00:00 4.5 6 Oeste 13 Oeste 0 -- -- 93
2019-12-04 01:00:00 4.6 5 Oeste 9 Oeste 0 -- -- 91
2019-12-04 00:00:00 4.7 4 Oeste 8 Oeste 0 -- -- 89
2019-12-03 23:00:00 4.9 3 Oeste 7 Sudoeste 0 -- -- 88
2019-12-03 22:00:00 4.8 5 Oeste 9 Oeste 0 -- -- 88
2019-12-03 21:00:00 5 5 Oeste 9 Oeste 0 -- -- 86
2019-12-03 20:00:00 4.9 4 Oeste 9 Sudoeste 0 -- -- 86
2019-12-03 19:00:00 4.6 5 Sudoeste 9 Sudoeste 0 -- -- 87
2019-12-03 18:00:00 5.3 5 Oeste 8 Sudoeste 0 -- -- 84
2019-12-03 17:00:00 6.3 5 Oeste 13 Oeste 0 -- -- 77
2019-12-03 16:00:00 6.2 7 Oeste 18 Oeste 0 -- -- 74
2019-12-03 15:00:00 6.5 6 Oeste 15 Oeste 0 -- -- 72
2019-12-03 14:00:00 6.5 8 Oeste 21 Oeste 0 -- -- 72
2019-12-03 13:00:00 6.4 15 Oeste 24 Oeste 0 -- -- 72
2019-12-03 12:00:00 6.9 11 Oeste 25 Oeste 0 -- -- 70
2019-12-03 11:00:00 6 13 Oeste 23 Oeste 0 -- -- 73
2019-12-03 10:00:00 5.4 10 Oeste 19 Sudoeste 0 -- -- 77
2019-12-03 09:00:00 4.1 7 Oeste 15 Sudoeste 0 -- -- 82
2019-12-03 08:00:00 3.5 10 Oeste 19 Sudoeste 0 -- -- 84
2019-12-03 07:00:00 3.5 13 Oeste 21 Sudoeste 0 -- -- 84
2019-12-03 06:00:00 3.6 13 Oeste 25 Oeste 0 -- -- 84
2019-12-03 05:00:00 3.9 16 Sudoeste 26 Sudoeste 0 -- -- 82
2019-12-03 04:00:00 3.9 15 Sudoeste 23 Sudoeste 0 -- -- 81
2019-12-03 03:00:00 4 15 Sudoeste 24 Oeste 0 -- -- 81
2019-12-03 02:00:00 4.4 15 Oeste 32 Sudoeste 0 -- -- 81
2019-12-03 01:00:00 4.9 21 Sudoeste 29 Oeste 0 -- -- 81
2019-12-03 00:00:00 5.5 18 Oeste 31 Sudoeste 0 -- -- 81
2019-12-02 23:00:00 6 21 Sudoeste 31 Sudoeste 0 -- -- 81
2019-12-02 22:00:00 6.8 19 Sudoeste 29 Sudoeste 0 -- -- 82
2019-12-02 21:00:00 7.2 14 Sudoeste 22 Sudoeste 0 -- -- 83
2019-12-02 20:00:00 8.2 15 Sudoeste 23 Sudoeste 0 -- -- 81
2019-12-02 19:00:00 8.9 10 Sudoeste 17 Oeste 0 -- -- 78
2019-12-02 18:00:00 9.1 9 Sudoeste 12 Oeste 0 -- -- 76
2019-12-02 17:00:00 10.9 9 Oeste 19 Oeste 0 -- -- 69
2019-12-02 16:00:00 11.5 11 Oeste 22 Sudoeste 0 -- -- 68
2019-12-02 15:00:00 11.3 13 Oeste 20 Sudoeste 0 -- -- 70
2019-12-02 14:00:00 10.8 12 Oeste 23 Oeste 0 -- -- 74
2019-12-02 13:00:00 9.7 13 Oeste 21 Oeste 0 -- -- 79
2019-12-02 12:00:00 8.6 11 Oeste 20 Sudoeste 0 -- -- 86
2019-12-02 11:00:00 6 13 Sudoeste 22 Sudoeste 0 -- -- 98
2019-12-02 10:00:00 5.3 5 Oeste 10 Oeste 0 -- -- 97
2019-12-02 09:00:00 5.3 4 Oeste 13 Oeste 0 -- -- 95
2019-12-02 08:00:00 5.7 5 Sudoeste 13 Oeste 0 -- -- 94
2019-12-02 07:00:00 5.6 10 Oeste 15 Sudoeste 0 -- -- 93
2019-12-02 06:00:00 5.8 5 Sudoeste 10 Sudoeste 0 -- -- 92
2019-12-02 05:00:00 5.6 6 Oeste 10 Oeste 0 -- -- 92
2019-12-02 04:00:00 6.1 6 Sudoeste 9 Sudoeste 0 -- -- 91
2019-12-02 03:00:00 6.2 7 Sudoeste 12 Sudoeste 0 -- -- 91
2019-12-02 02:00:00 6.4 8 Sudoeste 13 Sudoeste 0 -- -- 89
2019-12-02 01:00:00 6.6 6 Sudoeste 14 Oeste 0 -- -- 88
2019-12-02 00:00:00 7.1 9 Sudoeste 14 Sudoeste 0 -- -- 85
2019-12-01 23:00:00 8 6 Oeste 9 Sudoeste 0 -- -- 77
2019-12-01 22:00:00 8.3 5 Sudoeste 8 Sudoeste 0 -- -- 76
2019-12-01 21:00:00 8.4 0 Calma 6 Nordeste 0 -- -- 77
2019-12-01 20:00:00 9.8 2 Oeste 8 Oeste 0 -- -- 72
2019-12-01 19:00:00 10.1 0 Calma 4 Nordeste 0 -- -- 71
2019-12-01 18:00:00 11.1 2 Noroeste 11 Oeste 0 -- -- 67
2019-12-01 17:00:00 12.5 8 Oeste 13 Oeste 0 -- -- 62
2019-12-01 16:00:00 13.1 8 Noroeste 17 Oeste 0 -- -- 60
2019-12-01 15:00:00 13.3 8 Oeste 17 Oeste 0 -- -- 58
2019-12-01 14:00:00 12.6 13 Oeste 24 Oeste 0 -- -- 60
2019-12-01 13:00:00 11.5 13 Oeste 20 Oeste 0 -- -- 66
2019-12-01 12:00:00 11.6 4 Sudoeste 12 Oeste 0 -- -- 67
2019-12-01 11:00:00 9.5 8 Oeste 13 Oeste 0 -- -- 75
2019-12-01 10:00:00 7.6 4 Oeste 11 Oeste 0 -- -- 83
2019-12-01 09:00:00 7.5 4 Sudoeste 10 Sudoeste 0 -- -- 81
2019-12-01 08:00:00 7.4 4 Sudoeste 9 Sudoeste 0 -- -- 83
2019-12-01 07:00:00 7.5 8 Oeste 11 Oeste 0 -- -- 84
2019-12-01 06:00:00 8 3 Oeste 6 Sudoeste 0 -- -- 83
2019-12-01 05:00:00 8.5 6 Sudoeste 17 Sudoeste 0 -- -- 81
2019-12-01 04:00:00 9.1 10 Sudoeste 21 Oeste 0 -- -- 80
2019-12-01 03:00:00 9.5 15 Oeste 27 Sudoeste 0 -- -- 81
2019-12-01 02:00:00 10.1 16 Oeste 31 Oeste 0 -- -- 80
2019-12-01 01:00:00 10.1 17 Oeste 34 Sudoeste 0 -- -- 87
2019-12-01 00:00:00 10.3 16 Oeste 23 Oeste 0 -- -- 94
2019-11-30 23:00:00 10.5 11 Sudoeste 21 Sudeste 0 -- -- 93
2019-11-30 22:00:00 11.1 6 Este 12 Este 0 -- -- 96
2019-11-30 21:00:00 11.5 8 Este 10 Este 0 -- -- 92
2019-11-30 20:00:00 12.4 7 Este 18 Este 0 -- -- 90
2019-11-30 19:00:00 12.9 10 Este 26 Sudeste 0 -- -- 89
2019-11-30 18:00:00 14.3 12 Sudeste 25 Sudeste 0 -- -- 80
2019-11-30 17:00:00 17 6 Este 14 Sudeste 0 -- -- 67
2019-11-30 16:00:00 18.1 3 Nordeste 11 Norte 0 -- -- 61
2019-11-30 15:00:00 17.8 6 Nordeste 13 Nordeste 0 -- -- 61
2019-11-30 14:00:00 17.8 4 Nordeste 10 Nordeste 0 -- -- 62
2019-11-30 13:00:00 16.3 3 Nordeste 6 Nordeste 0 -- -- 70
2019-11-30 12:00:00 14.2 2 Nordeste 8 Nordeste 0 -- -- 76
2019-11-30 11:00:00 11.6 0 Calma 6 Nordeste 0 -- -- 84
2019-11-30 10:00:00 8.9 6 Oeste 9 Oeste 0 -- -- 93
2019-11-30 09:00:00 8.8 4 Nordeste 5 Este 0 -- -- 92
2019-11-30 08:00:00 8.4 3 Este 8 Este 0 -- -- 95
2019-11-30 07:00:00 7.6 7 Este 9 Este 0 -- -- 93
2019-11-30 06:00:00 8.7 7 Este 9 Este 0 -- -- 89
2019-11-30 05:00:00 8.6 6 Este 9 Nordeste 0 -- -- 91
2019-11-30 04:00:00 9.5 5 Noroeste 10 Noroeste 0 -- -- 85
2019-11-30 03:00:00 11.8 6 Sudeste 9 Sudeste 0 -- -- 78
2019-11-30 02:00:00 11.4 3 Sudeste 8 Sudoeste 0 -- -- 79
2019-11-30 01:00:00 12 6 Sudoeste 8 Sudoeste 0 -- -- 77
2019-11-30 00:00:00 12.3 5 Sudoeste 10 Sudoeste 0 -- -- 76
2019-11-29 23:00:00 12.3 5 Sudoeste 11 Sur 0 -- -- 76
2019-11-29 22:00:00 12.2 7 Sudoeste 10 Sudoeste 0 -- -- 76
2019-11-29 21:00:00 12.5 8 Sudoeste 14 Oeste 0 -- -- 75
2019-11-29 20:00:00 12.6 9 Sudoeste 19 Sudoeste 0 -- -- 75
2019-11-29 19:00:00 13.3 14 Sudoeste 21 Oeste 0 -- -- 72
2019-11-29 18:00:00 13.6 8 Sudoeste 15 Sudoeste 0 -- -- 70
2019-11-29 17:00:00 15.2 11 Oeste 26 Oeste 0 -- -- 64
2019-11-29 16:00:00 16.9 18 Oeste 31 Oeste 0 -- -- 59
2019-11-29 15:00:00 16.8 23 Oeste 39 Oeste 0 -- -- 58
2019-11-29 14:00:00 17 22 Oeste 38 Oeste 0 -- -- 59
2019-11-29 13:00:00 16.8 28 Oeste 42 Oeste 0 -- -- 61
2019-11-29 12:00:00 15.9 27 Oeste 40 Oeste 0 -- -- 67
2019-11-29 11:00:00 15 24 Oeste 35 Oeste 0 -- -- 72
2019-11-29 10:00:00 13.6 19 Oeste 28 Oeste 0 -- -- 75
2019-11-29 09:00:00 13.4 15 Oeste 26 Oeste 0 -- -- 75
2019-11-29 08:00:00 12.8 15 Oeste 26 Oeste 0 -- -- 75
2019-11-29 07:00:00 12.6 16 Oeste 24 Oeste 0 -- -- 75
2019-11-29 06:00:00 12.5 11 Oeste 16 Oeste 0 -- -- 73
2019-11-29 05:00:00 12.6 9 Oeste 15 Oeste 0 -- -- 70
2019-11-29 04:00:00 12.9 11 Oeste 17 Sudoeste 0 -- -- 66
2019-11-29 03:00:00 12.9 5 Sudoeste 15 Sudoeste 0 -- -- 65
2019-11-29 02:00:00 13.2 14 Oeste 26 Sudoeste 0 -- -- 64
2019-11-29 01:00:00 13.4 17 Sudoeste 24 Sudoeste 0 -- -- 62
2019-11-29 00:00:00 13.6 13 Sudoeste 19 Sudoeste 0 -- -- 61
2019-11-28 23:00:00 13.8 12 Oeste 20 Oeste 0 -- -- 59
2019-11-28 22:00:00 14.4 13 Oeste 29 Oeste 0 -- -- 56
2019-11-28 21:00:00 14.5 15 Oeste 26 Oeste 0 -- -- 55
2019-11-28 20:00:00 14.6 17 Oeste 27 Oeste 0 -- -- 57
2019-11-28 19:00:00 14.9 4 Oeste 10 Sudoeste 0 -- -- 56
2019-11-28 18:00:00 15.8 6 Oeste 18 Oeste 0 -- -- 53
2019-11-28 17:00:00 16.4 10 Oeste 26 Oeste 0 -- -- 52
2019-11-28 16:00:00 17.3 19 Oeste 30 Oeste 0 -- -- 50
2019-11-28 15:00:00 18 15 Oeste 39 Oeste 0 -- -- 52
2019-11-28 14:00:00 17.8 24 Oeste 43 Oeste 0 -- -- 52
2019-11-28 13:00:00 16.6 23 Oeste 34 Oeste 0 -- -- 54
2019-11-28 12:00:00 15.8 17 Oeste 36 Oeste 0 -- -- 57
2019-11-28 11:00:00 14.6 18 Oeste 28 Oeste 0 -- -- 60
2019-11-28 10:00:00 12.7 17 Oeste 28 Oeste 0 -- -- 64
2019-11-28 09:00:00 11.6 11 Oeste 21 Oeste 0 -- -- 66
2019-11-28 08:00:00 10.6 12 Oeste 24 Sudoeste 0 -- -- 70
2019-11-28 07:00:00 10.6 13 Oeste 22 Oeste 0 -- -- 70
2019-11-28 06:00:00 10.8 13 Oeste 22 Sudoeste 0 -- -- 69
2019-11-28 05:00:00 10.9 10 Sudoeste 23 Oeste 0 -- -- 68
2019-11-28 04:00:00 11 12 Oeste 22 Oeste 0 -- -- 67
2019-11-28 03:00:00 11.4 11 Oeste 30 Oeste 0 -- -- 66
2019-11-28 02:00:00 12.3 22 Oeste 38 Oeste 0 -- -- 62
2019-11-28 01:00:00 12.6 22 Oeste 36 Oeste 0 -- -- 60
2019-11-28 00:00:00 11.7 14 Oeste 23 Oeste 0 -- -- 63
2019-11-27 23:00:00 11.7 5 Sudoeste 13 Sudoeste 0 -- -- 62
2019-11-27 22:00:00 12.4 5 Oeste 18 Sudoeste 0 -- -- 58
2019-11-27 21:00:00 13 8 Sudoeste 15 Sudoeste 0 -- -- 56
2019-11-27 20:00:00 12.3 9 Sudoeste 13 Oeste 0 -- -- 59
2019-11-27 19:00:00 12.6 9 Oeste 14 Oeste 0 -- -- 58
2019-11-27 18:00:00 14 9 Oeste 26 Oeste 0 -- -- 53
2019-11-27 17:00:00 15.5 13 Oeste 36 Oeste 0 -- -- 49
2019-11-27 16:00:00 16.7 22 Oeste 40 Oeste 0 -- -- 45
2019-11-27 15:00:00 16.7 28 Oeste 44 Oeste 0 -- -- 45
2019-11-27 14:00:00 16.3 32 Oeste 47 Oeste 0 -- -- 45
2019-11-27 06:00:00 -- -- -- -- -- -- -- -- --
2019-11-27 05:00:00 13.5 14 Oeste 29 Sudoeste 0 -- -- 67
2019-11-27 04:00:00 12.9 13 Oeste 27 Oeste 0 -- -- 72
2019-11-27 03:00:00 14.7 13 Oeste 30 Sudoeste 0 -- -- 68
2019-11-27 02:00:00 15.6 14 Sudoeste 24 Sudoeste 0 -- -- 65
2019-11-27 01:00:00 13.5 11 Sudoeste 20 Sur 0 -- -- 74
2019-11-27 00:00:00 11.9 3 Sudeste 10 Este 0 -- -- 79
2019-11-26 23:00:00 12.2 4 Nordeste 10 Oeste 0 -- -- 80
2019-11-26 22:00:00 13.3 5 Sudoeste 12 Este 0 -- -- 73
2019-11-26 21:00:00 13.5 8 Nordeste 12 Este 0 -- -- 73
2019-11-26 20:00:00 13.5 4 Oeste 16 Sudeste 0 -- -- 72
2019-11-26 19:00:00 14.4 9 Este 16 Este 0 -- -- 68
2019-11-26 18:00:00 14.9 6 Este 11 Este 0 -- -- 69
2019-11-26 17:00:00 17.3 4 Nordeste 8 Norte 0 -- -- 58
2019-11-26 16:00:00 18.3 4 Norte 8 Nordeste 0 -- -- 55
2019-11-26 15:00:00 17.9 3 Norte 10 Nordeste 0 -- -- 57
2019-11-26 14:00:00 17.5 4 Norte 11 Noroeste 0 -- -- 58
2019-11-26 13:00:00 17.5 3 Sur 12 Oeste 0 -- -- 56
2019-11-26 12:00:00 15.5 8 Oeste 14 Oeste 0 -- -- 62
2019-11-26 11:00:00 14.8 8 Oeste 15 Sudoeste 0 -- -- 65
2019-11-26 10:00:00 12.4 9 Sudoeste 14 Sudoeste 0 -- -- 74
2019-11-26 09:00:00 10.6 5 Sudoeste 11 Sudoeste 0 -- -- 80
2019-11-26 08:00:00 10.3 6 Sudoeste 10 Sudoeste 0 -- -- 81
2019-11-26 07:00:00 10.4 5 Oeste 17 Oeste 0 -- -- 81
2019-11-26 06:00:00 10.9 9 Sudoeste 16 Sudoeste 0 -- -- 79
2019-11-26 05:00:00 10.9 8 Sudoeste 14 Sudoeste 0 -- -- 78
2019-11-26 04:00:00 11.2 10 Sudoeste 17 Oeste 0 -- -- 77
2019-11-26 03:00:00 11.8 10 Sudoeste 20 Sudoeste 0 -- -- 73
2019-11-26 02:00:00 12.2 15 Sudoeste 25 Sudoeste 0 -- -- 72
2019-11-26 01:00:00 11.9 11 Sudoeste 18 Sudoeste 0 -- -- 74
2019-11-26 00:00:00 12.2 9 Sudoeste 18 Sudoeste 0 -- -- 75
2019-11-25 23:00:00 12.6 11 Sudoeste 20 Sudoeste 0 -- -- 75
2019-11-25 22:00:00 12.5 12 Sudoeste 19 Sudoeste 0 -- -- 76
2019-11-25 21:00:00 12.9 9 Sudoeste 15 Sudoeste 0 -- -- 76
2019-11-25 20:00:00 13.3 8 Sudoeste 12 Sudoeste 0 -- -- 75
2019-11-25 19:00:00 13.5 6 Sudoeste 12 Sudoeste 0 -- -- 74
2019-11-25 18:00:00 14.1 7 Sudoeste 23 Oeste 0 -- -- 71
2019-11-25 17:00:00 15.9 19 Oeste 33 Oeste 0 -- -- 64
2019-11-25 16:00:00 16.6 20 Oeste 36 Oeste 0 -- -- 63
2019-11-25 15:00:00 16.2 26 Oeste 40 Oeste 0 -- -- 64
2019-11-25 14:00:00 15.9 24 Oeste 37 Oeste 0 -- -- 66
2019-11-25 13:00:00 15.2 17 Oeste 28 Oeste 0 -- -- 68
2019-11-25 12:00:00 13.5 14 Oeste 26 Oeste 0 -- -- 72
2019-11-25 11:00:00 12.2 10 Oeste 18 Oeste 0 -- -- 76
2019-11-25 10:00:00 9.5 6 Oeste 10 Sudoeste 0 -- -- 83
2019-11-25 09:00:00 8.4 5 Sudoeste 9 Sudoeste 0 -- -- 86
2019-11-25 08:00:00 7.5 4 Sudoeste 7 Sudoeste 0 -- -- 86
2019-11-25 07:00:00 8 3 Oeste 13 Sudoeste 0 -- -- 83
2019-11-25 06:00:00 7.6 7 Sudoeste 15 Sudoeste 0 -- -- 83
2019-11-25 05:00:00 7 9 Oeste 17 Oeste 0 -- -- 83
2019-11-25 04:00:00 7.1 10 Oeste 16 Oeste 0 -- -- 81
2019-11-25 03:00:00 7.2 6 Oeste 19 Sudoeste 0 -- -- 80
2019-11-25 02:00:00 6.9 12 Oeste 20 Sudoeste 0.2 -- -- 82
2019-11-25 01:00:00 7.9 9 Sudoeste 14 Sudoeste 0 -- -- 70
2019-11-25 00:00:00 7.6 6 Oeste 23 Sudoeste 0 -- -- 70
2019-11-24 23:00:00 7.4 13 Oeste 22 Oeste 0 -- -- 71
2019-11-24 22:00:00 7.6 15 Oeste 23 Oeste 0 -- -- 71
2019-11-24 21:00:00 8 8 Oeste 25 Oeste 0 -- -- 71
2019-11-24 20:00:00 8.6 12 Oeste 23 Sudoeste 0 -- -- 71
2019-11-24 19:00:00 9.1 12 Oeste 21 Oeste 0 -- -- 71
2019-11-24 18:00:00 10.3 10 Oeste 37 Oeste 0 -- -- 65
2019-11-24 17:00:00 11.9 23 Oeste 45 Oeste 0 -- -- 59
2019-11-24 16:00:00 12.4 30 Oeste 52 Oeste 0 -- -- 59
2019-11-24 15:00:00 13 27 Oeste 60 Oeste 0 -- -- 57
2019-11-24 14:00:00 11.9 45 Oeste 65 Oeste 0 -- -- 59
2019-11-24 13:00:00 11.7 39 Oeste 67 Oeste 0 -- -- 60
2019-11-24 12:00:00 11.1 37 Oeste 66 Oeste 0 -- -- 64
2019-11-24 11:00:00 9.7 33 Oeste 58 Oeste 0 -- -- 68
2019-11-24 10:00:00 8.7 31 Oeste 55 Oeste 0 -- -- 70
2019-11-24 09:00:00 7.7 33 Oeste 54 Oeste 0 -- -- 71
2019-11-24 08:00:00 7.3 28 Oeste 48 Oeste 0 -- -- 73
2019-11-24 07:00:00 7.5 35 Oeste 56 Oeste 0 -- -- 74
2019-11-24 06:00:00 7.6 33 Oeste 57 Oeste 0 -- -- 73
2019-11-24 05:00:00 7.5 33 Oeste 50 Oeste 0 -- -- 74
2019-11-24 04:00:00 7.7 30 Oeste 50 Oeste 0 -- -- 74
2019-11-24 03:00:00 7.8 35 Oeste 50 Oeste 0 -- -- 74
2019-11-24 02:00:00 7.5 21 Oeste 49 Oeste 0 -- -- 76
2019-11-24 01:00:00 8 26 Oeste 46 Oeste 0 -- -- 73
2019-11-24 00:00:00 7.9 27 Oeste 44 Oeste 0 -- -- 74
2019-11-23 23:00:00 8.1 28 Oeste 41 Sudoeste 0 -- -- 74
2019-11-23 22:00:00 8.4 25 Oeste 51 Oeste 0 -- -- 73
2019-11-23 21:00:00 9.3 41 Oeste 65 Noroeste 0 -- -- 68
2019-11-23 20:00:00 9.5 36 Oeste 61 Oeste 0 -- -- 68
2019-11-23 19:00:00 9.6 42 Oeste 70 Oeste 0 -- -- 67
2019-11-23 18:00:00 10.1 51 Oeste 75 Oeste 0.2 -- -- 65
2019-11-23 17:00:00 10.3 54 Oeste 78 Oeste 0 -- -- 62
2019-11-23 16:00:00 10.4 44 Oeste 69 Oeste 0 -- -- 66
2019-11-23 15:00:00 10.2 39 Oeste 58 Oeste 0 -- -- 68
2019-11-23 14:00:00 9.9 33 Oeste 58 Oeste 0 -- -- 75
2019-11-23 13:00:00 9 32 Oeste 51 Oeste 0 -- -- 86
2019-11-23 12:00:00 7.7 22 Oeste 34 Oeste 0.6 -- -- 95
2019-11-23 11:00:00 7.3 15 Oeste 49 Oeste 0.6 -- -- 94
2019-11-23 10:00:00 8.4 25 Oeste 51 Oeste 0 -- -- 79
2019-11-23 09:00:00 9.1 29 Oeste 50 Oeste 0 -- -- 73
2019-11-23 08:00:00 8.5 13 Oeste 24 Sudoeste 0 -- -- 76
2019-11-23 07:00:00 8.2 11 Oeste 23 Sudoeste 0 -- -- 83
2019-11-23 06:00:00 8.1 8 Oeste 24 Oeste 0 -- -- 86
2019-11-23 05:00:00 8.5 17 Oeste 33 Oeste 0 -- -- 87
2019-11-23 04:00:00 9.5 14 Sur 18 Sur 0 -- -- 89
2019-11-23 03:00:00 8.9 5 Este 9 Este 0 -- -- 95
2019-11-23 02:00:00 9.4 6 Sudeste 12 Sur 0 -- -- 93
2019-11-23 01:00:00 10.1 6 Sur 21 Oeste 0.4 -- -- 91
2019-11-23 00:00:00 10.9 21 Oeste 40 Oeste 0.4 -- -- 88
2019-11-22 23:00:00 11.7 20 Sudeste 39 Sudeste 0 -- -- 92
2019-11-22 22:00:00 12.1 21 Sudeste 42 Sudeste 0 -- -- 90
2019-11-22 21:00:00 11.8 18 Sudeste 39 Sudeste 0.2 -- -- 92
2019-11-22 20:00:00 11.6 19 Sudeste 46 Sudeste 0 -- -- 94
2019-11-22 19:00:00 11 12 Este 40 Sudeste 1.2 -- -- 96
2019-11-22 18:00:00 10.6 14 Este 39 Sudeste 1.6 -- -- 94
2019-11-22 17:00:00 10.7 16 Sudeste 36 Sudeste 0.2 -- -- 88
2019-11-22 16:00:00 10.9 17 Sudeste 40 Sudeste 0 -- -- 86
2019-11-22 15:00:00 11.2 15 Este 37 Sudeste 0 -- -- 85
2019-11-22 14:00:00 11.5 17 Sudeste 43 Sudeste 0 -- -- 79
2019-11-22 13:00:00 12.5 15 Sudeste 37 Sudeste 0 -- -- 69
2019-11-22 12:00:00 11.8 13 Este 27 Sudeste 0 -- -- 77
2019-11-22 11:00:00 8.9 7 Este 14 Nordeste 0 -- -- 90
2019-11-22 10:00:00 7.8 5 Nordeste 10 Nordeste 0 -- -- 94
2019-11-22 09:00:00 5.9 9 Este 11 Este 0 -- -- 95
2019-11-22 08:00:00 6.1 0 Calma 4 Noroeste 0 -- -- 92
2019-11-22 07:00:00 5.7 0 Calma 6 Noroeste 0 -- -- 93
2019-11-22 06:00:00 6.1 0 Calma 10 Noroeste 0 -- -- 91
2019-11-22 05:00:00 6.9 3 Sudeste 7 Este 0 -- -- 89
2019-11-22 04:00:00 7.2 2 Norte 5 Este 0 -- -- 88
2019-11-22 03:00:00 7.2 4 Este 8 Oeste 0 -- -- 86
2019-11-22 02:00:00 8.2 3 Sudeste 6 Sudeste 0 -- -- 83
2019-11-22 01:00:00 9.1 0 Calma 5 Oeste 0 -- -- 79
2019-11-22 00:00:00 9 0 Calma 4 Noroeste 0 -- -- 79
2019-11-21 23:00:00 9 0 Calma 6 Este 0 -- -- 78
2019-11-21 22:00:00 9.4 3 Nordeste 11 Sudeste 0 -- -- 77
2019-11-21 21:00:00 9.3 4 Este 10 Sudeste 0 -- -- 77
2019-11-21 20:00:00 9.7 6 Este 8 Este 0 -- -- 75
2019-11-21 19:00:00 10.2 3 Este 9 Sudeste 0 -- -- 73
2019-11-21 18:00:00 10.7 4 Este 10 Este 0 -- -- 71
2019-11-21 17:00:00 11.6 4 Este 11 Este 0 -- -- 65
2019-11-21 16:00:00 12.5 3 Este 5 Nordeste 0 -- -- 60
2019-11-21 15:00:00 13 3 Norte 13 Noroeste 0 -- -- 55
2019-11-21 14:00:00 13.6 6 Oeste 13 Oeste 0 -- -- 53
2019-11-21 13:00:00 12.4 7 Oeste 16 Oeste 0 -- -- 58
2019-11-21 12:00:00 11.4 6 Oeste 14 Sur 0 -- -- 63
2019-11-21 11:00:00 8.4 0 Calma 4 Sudeste 0 -- -- 84
2019-11-21 10:00:00 5.9 3 Este 7 Sudoeste 0 -- -- 92
2019-11-21 09:00:00 5.3 6 Sudoeste 8 Sudoeste 0 -- -- 93
2019-11-21 08:00:00 -- -- -- -- -- -- -- -- --
2019-11-21 07:00:00 -- -- -- -- -- -- -- -- --
2019-11-21 06:00:00 -- -- -- -- -- -- -- -- --
2019-11-21 05:00:00 -- -- -- -- -- -- -- -- --
2019-11-21 04:00:00 -- -- -- -- -- -- -- -- --
2019-11-21 03:00:00 -- -- -- -- -- -- -- -- --
2019-11-21 02:00:00 -- -- -- -- -- -- -- -- --
2019-11-21 01:00:00 -- -- -- -- -- -- -- -- --
2019-11-21 00:00:00 -- -- -- -- -- -- -- -- --
2019-11-20 23:00:00 -- -- -- -- -- -- -- -- --
2019-11-20 22:00:00 -- -- -- -- -- -- -- -- --
2019-11-20 21:00:00 -- -- -- -- -- -- -- -- --
2019-11-20 20:00:00 -- -- -- -- -- -- -- -- --
2019-11-20 19:00:00 8.2 7 Este 17 Este 0 -- -- 85
2019-11-20 18:00:00 8.7 6 Este 15 Este 0 -- -- 82
2019-11-20 17:00:00 10.3 7 Este 20 Este 0 -- -- 76
2019-11-20 16:00:00 11.7 9 Este 22 Este 0 -- -- 67
2019-11-20 15:00:00 12.5 10 Este 20 Sur 0 -- -- 64
2019-11-20 14:00:00 10.8 5 Nordeste 12 Nordeste 0 -- -- 67
2019-11-20 13:00:00 10 6 Norte 11 Norte 0 -- -- 66
2019-11-20 12:00:00 9 5 Nordeste 8 Nordeste 0 -- -- 70
2019-11-20 11:00:00 6.9 3 Nordeste 5 Nordeste 0 -- -- 77
2019-11-20 10:00:00 3.2 3 Este 4 Oeste 0 -- -- 93
2019-11-20 09:00:00 1.9 4 Oeste 5 Oeste 0 -- -- 91
2019-11-20 08:00:00 2.8 2 Nordeste 5 Nordeste 0 -- -- 88
2019-11-20 07:00:00 2.5 3 Nordeste 5 Nordeste 0 -- -- 89
2019-11-20 06:00:00 3.3 0 Calma 4 Nordeste 0 -- -- 88
2019-11-20 05:00:00 4.3 0 Calma 7 Sudeste 0 -- -- 82
2019-11-20 04:00:00 5.2 5 Sudeste 9 Este 0 -- -- 78
2019-11-20 03:00:00 3.2 7 Este 9 Este 0 -- -- 88
2019-11-20 02:00:00 4.1 2 Nordeste 7 Sudoeste 0 -- -- 83
2019-11-20 01:00:00 5.1 3 Sur 5 Sudeste 0 -- -- 80
2019-11-20 00:00:00 5.9 5 Sudeste 13 Sudeste 0 -- -- 76
2019-11-19 23:00:00 6.1 10 Sudeste 14 Sudeste 0 -- -- 74
2019-11-19 22:00:00 6.1 13 Sudeste 15 Sudeste 0 -- -- 74
2019-11-19 21:00:00 7 11 Sur 13 Sur 0 -- -- 70
2019-11-19 20:00:00 7.5 6 Sudoeste 11 Sur 0 -- -- 69
2019-11-19 19:00:00 7.9 4 Sudoeste 10 Sudoeste 0 -- -- 67
2019-11-19 18:00:00 8.4 5 Oeste 17 Oeste 0 -- -- 65
2019-11-19 17:00:00 10.2 12 Oeste 27 Oeste 0 -- -- 59
2019-11-19 16:00:00 10.8 15 Oeste 28 Oeste 0 -- -- 59
2019-11-19 15:00:00 10.7 16 Oeste 28 Oeste 0 -- -- 58
2019-11-19 14:00:00 9.7 14 Oeste 26 Sudoeste 0 -- -- 64
2019-11-19 13:00:00 8.8 17 Oeste 32 Oeste 0 -- -- 66
2019-11-19 12:00:00 8.3 20 Oeste 32 Oeste 0 -- -- 69
2019-11-19 11:00:00 7.5 18 Oeste 38 Oeste 0 -- -- 71
2019-11-19 10:00:00 6.1 18 Oeste 30 Sudoeste 0 -- -- 76
2019-11-19 09:00:00 4.2 11 Oeste 23 Sudoeste 0 -- -- 78
2019-11-19 08:00:00 3.7 13 Sudoeste 19 Sudoeste 0 -- -- 80
2019-11-19 07:00:00 3.7 12 Sudoeste 21 Sudoeste 0 -- -- 79
2019-11-19 06:00:00 3.5 9 Sudoeste 26 Oeste 0 -- -- 84
2019-11-19 05:00:00 3.8 14 Sudoeste 23 Sudoeste 0 -- -- 83
2019-11-19 04:00:00 4 14 Sudoeste 26 Sudoeste 0 -- -- 82
2019-11-19 03:00:00 4.2 15 Sudoeste 26 Sudoeste 0 -- -- 81
2019-11-19 02:00:00 4 15 Sudoeste 26 Sudoeste 0 -- -- 80
2019-11-19 01:00:00 4.2 15 Sudoeste 26 Sudoeste 0 -- -- 77
2019-11-19 00:00:00 4.5 18 Sudoeste 30 Oeste 0 -- -- 76
2019-11-18 23:00:00 4.9 19 Sudoeste 36 Oeste 0 -- -- 74
2019-11-18 22:00:00 5.1 21 Oeste 39 Oeste 0 -- -- 73
2019-11-18 21:00:00 5.5 24 Sudoeste 36 Oeste 0 -- -- 73
2019-11-18 20:00:00 6 20 Oeste 34 Oeste 0 -- -- 70
2019-11-18 19:00:00 6.6 19 Oeste 36 Sudoeste 0 -- -- 67
2019-11-18 18:00:00 7.2 17 Oeste 35 Oeste 0 -- -- 68
2019-11-18 17:00:00 9.2 18 Oeste 39 Sudoeste 0 -- -- 62
2019-11-18 16:00:00 10.6 20 Oeste 33 Sudoeste 0 -- -- 57
2019-11-18 15:00:00 9.8 20 Oeste 34 Oeste 0 -- -- 62
2019-11-18 14:00:00 10 19 Oeste 31 Oeste 0 -- -- 61
2019-11-18 13:00:00 8.8 17 Oeste 39 Oeste 0 -- -- 65
2019-11-18 12:00:00 8.1 23 Oeste 41 Oeste 0 -- -- 71
2019-11-18 11:00:00 7 22 Oeste 36 Oeste 0 -- -- 79
2019-11-18 10:00:00 5.9 19 Oeste 35 Oeste 0 -- -- 89
2019-11-18 09:00:00 5.2 18 Oeste 30 Sudoeste 0 -- -- 93
2019-11-18 08:00:00 5.2 15 Oeste 27 Oeste 0 -- -- 97
2019-11-18 07:00:00 5.3 16 Oeste 27 Oeste 0 -- -- 99
2019-11-18 06:00:00 5.3 14 Oeste 22 Oeste 0 -- -- 99
2019-11-18 05:00:00 5.2 8 Oeste 12 Oeste 0 -- -- 98
2019-11-18 04:00:00 5.6 4 Oeste 12 Noroeste 0 -- -- 97
2019-11-18 03:00:00 6.1 8 Oeste 14 Oeste 0 -- -- 96
2019-11-18 02:00:00 7.1 6 Oeste 12 Sudoeste 0 -- -- 92
2019-11-18 01:00:00 7.3 5 Sur 8 Sudoeste 0 -- -- 93
2019-11-18 00:00:00 7.5 4 Sudoeste 9 Sudoeste 0 -- -- 94
2019-11-17 23:00:00 7.6 6 Oeste 10 Sudoeste 0 -- -- 94
2019-11-17 22:00:00 7.7 4 Sudoeste 12 Sudoeste 0 -- -- 95
2019-11-17 21:00:00 7.7 6 Sudoeste 12 Sudoeste 0 -- -- 96
2019-11-17 20:00:00 7.8 7 Oeste 14 Sudoeste 0 -- -- 95
2019-11-17 19:00:00 8 8 Oeste 19 Oeste 0.6 -- -- 94
2019-11-17 18:00:00 8.8 12 Oeste 22 Sudoeste 0.4 -- -- 88
2019-11-17 17:00:00 10.9 8 Oeste 21 Oeste 0 -- -- 70
2019-11-17 16:00:00 11.5 15 Oeste 26 Oeste 0 -- -- 61
2019-11-17 15:00:00 11.8 15 Oeste 33 Oeste 0 -- -- 61
2019-11-17 14:00:00 12.2 20 Oeste 39 Oeste 0 -- -- 58
2019-11-17 13:00:00 10.8 21 Oeste 39 Oeste 0 -- -- 61
2019-11-17 12:00:00 9.4 26 Oeste 39 Oeste 0 -- -- 64
2019-11-17 11:00:00 8 22 Oeste 35 Oeste 0 -- -- 68
2019-11-17 10:00:00 7.1 21 Oeste 36 Oeste 0 -- -- 69
2019-11-17 09:00:00 5.1 15 Oeste 24 Oeste 0 -- -- 76
2019-11-17 08:00:00 4.3 17 Oeste 34 Oeste 0 -- -- 76
2019-11-17 07:00:00 4.2 16 Oeste 32 Oeste 0 -- -- 77
2019-11-17 06:00:00 4 11 Oeste 22 Oeste 0 -- -- 76
2019-11-17 05:00:00 4.2 12 Oeste 21 Sudoeste 0 -- -- 76
2019-11-17 04:00:00 3.9 10 Oeste 27 Sudoeste 0 -- -- 78
2019-11-17 03:00:00 4.3 16 Sudoeste 22 Sudoeste 0 -- -- 79
2019-11-17 02:00:00 4.6 12 Oeste 21 Oeste 0 -- -- 79
2019-11-17 01:00:00 4.4 15 Oeste 33 Oeste 0 -- -- 80
2019-11-17 00:00:00 5 22 Oeste 34 Oeste 0 -- -- 78
2019-11-16 23:00:00 5.7 25 Oeste 36 Oeste 0 -- -- 74
2019-11-16 22:00:00 5.6 20 Oeste 33 Oeste 0 -- -- 74
2019-11-16 21:00:00 6 19 Oeste 31 Oeste 0 -- -- 73
2019-11-16 20:00:00 5.4 12 Oeste 19 Oeste 0 -- -- 79
2019-11-16 19:00:00 5.6 12 Oeste 17 Oeste 0 -- -- 81
2019-11-16 18:00:00 6.9 9 Oeste 19 Noroeste 0 -- -- 77
2019-11-16 17:00:00 8.5 19 Oeste 36 Noroeste 0 -- -- 64
2019-11-16 16:00:00 9.4 21 Oeste 40 Oeste 0 -- -- 60
2019-11-16 15:00:00 9.5 24 Oeste 34 Oeste 0 -- -- 59
2019-11-16 14:00:00 8.7 19 Oeste 35 Oeste 0 -- -- 66
2019-11-16 13:00:00 8.2 21 Oeste 33 Oeste 0 -- -- 67
2019-11-16 12:00:00 7.2 18 Oeste 29 Oeste 0 -- -- 70
2019-11-16 11:00:00 5.9 17 Oeste 31 Oeste 0 -- -- 76
2019-11-16 10:00:00 4.4 17 Oeste 27 Oeste 0 -- -- 81
2019-11-16 09:00:00 2.8 13 Oeste 21 Oeste 0 -- -- 90
2019-11-16 08:00:00 2.1 10 Oeste 18 Oeste 0 -- -- 92
2019-11-16 07:00:00 2.4 8 Oeste 26 Oeste 0 -- -- 91
2019-11-16 06:00:00 2.7 11 Oeste 26 Oeste 0 -- -- 91
2019-11-16 05:00:00 2.7 15 Oeste 26 Oeste 0 -- -- 90
2019-11-16 04:00:00 2.8 15 Sudoeste 26 Oeste 0 -- -- 91
2019-11-16 03:00:00 3.2 13 Oeste 21 Oeste 0 -- -- 89
2019-11-16 02:00:00 3.4 8 Oeste 18 Oeste 0 -- -- 89
2019-11-16 01:00:00 3.5 12 Oeste 22 Sudoeste 0 -- -- 89
2019-11-16 00:00:00 4 15 Oeste 31 Oeste 0 -- -- 87
2019-11-15 23:00:00 4.1 20 Oeste 31 Oeste 0 -- -- 86
2019-11-15 22:00:00 4.6 14 Oeste 25 Oeste 0 -- -- 84
2019-11-15 21:00:00 5 14 Sudoeste 29 Sudoeste 0 -- -- 81
2019-11-15 20:00:00 5.8 15 Oeste 26 Oeste 0 -- -- 78
2019-11-15 19:00:00 6.3 12 Oeste 20 Oeste 0 -- -- 80
2019-11-15 18:00:00 7.3 17 Oeste 37 Oeste 0 -- -- 77
2019-11-15 17:00:00 8 21 Oeste 51 Oeste 0 -- -- 72
2019-11-15 16:00:00 9.7 21 Oeste 33 Oeste 0 -- -- 60
2019-11-15 15:00:00 9.9 21 Oeste 30 Oeste 0 -- -- 60
2019-11-15 14:00:00 9.3 13 Oeste 26 Oeste 0 -- -- 64
2019-11-15 13:00:00 8.7 11 Oeste 21 Sudoeste 0 -- -- 65
2019-11-15 12:00:00 8 16 Oeste 31 Oeste 0 -- -- 65
2019-11-15 11:00:00 7.5 17 Oeste 29 Oeste 0 -- -- 66
2019-11-15 10:00:00 5.8 14 Sudoeste 23 Sudoeste 0 -- -- 75
2019-11-15 09:00:00 4 9 Oeste 17 Oeste 0 -- -- 88
2019-11-15 08:00:00 3.6 4 Sudoeste 21 Oeste 0 -- -- 89
2019-11-15 07:00:00 4.1 13 Oeste 28 Oeste 0 -- -- 88
2019-11-15 06:00:00 4.6 18 Oeste 25 Oeste 0 -- -- 86
2019-11-15 05:00:00 4.8 8 Oeste 22 Oeste 0 -- -- 89
2019-11-15 04:00:00 4.5 12 Oeste 21 Sudoeste 0 -- -- 92
2019-11-15 03:00:00 5 14 Sudoeste 22 Sudoeste 0 -- -- 88
2019-11-15 02:00:00 5.2 12 Oeste 20 Sudoeste 0 -- -- 80
2019-11-15 01:00:00 5.6 9 Sudoeste 13 Sudoeste 0 -- -- 73
2019-11-15 00:00:00 6.1 9 Oeste 17 Oeste 0 -- -- 68